createdAt,value
2018-09-22T00:01:41.833Z,3.00
2018-09-22T00:04:15.054Z,3.17
2018-09-22T00:06:46.136Z,3.00
2018-09-22T00:09:18.823Z,2.83
2018-09-22T00:11:50.824Z,2.83
2018-09-22T00:14:21.843Z,2.97
2018-09-22T00:16:57.421Z,2.77
2018-09-22T00:19:29.403Z,3.80
2018-09-22T00:22:02.355Z,2.67
2018-09-22T00:24:33.397Z,2.47
2018-09-22T00:27:06.282Z,2.60
2018-09-22T00:29:38.533Z,3.13
2018-09-22T00:32:09.974Z,3.47
2018-09-22T00:34:43.688Z,3.00
2018-09-22T00:37:15.297Z,3.37
2018-09-22T00:39:46.709Z,3.00
2018-09-22T00:42:18.123Z,3.97
2018-09-22T00:44:49.227Z,4.97
2018-09-22T00:47:20.091Z,3.77
2018-09-22T00:49:50.551Z,4.47
2018-09-22T00:52:21.926Z,3.80
2018-09-22T00:54:53.075Z,3.67
2018-09-22T00:57:24.904Z,3.40
2018-09-22T00:59:56.388Z,3.57
2018-09-22T01:02:28.402Z,3.57
2018-09-22T01:04:59.953Z,3.60
2018-09-22T01:07:31.023Z,3.63
2018-09-22T01:10:04.863Z,3.83
2018-09-22T01:12:36.481Z,3.50
2018-09-22T01:15:09.084Z,3.43
2018-09-22T01:17:41.141Z,3.43
2018-09-22T01:20:12.424Z,3.37
2018-09-22T01:22:45.083Z,3.40
2018-09-22T01:25:16.302Z,3.00
2018-09-22T01:27:47.610Z,3.37
2018-09-22T01:30:19.422Z,3.33
2018-09-22T01:32:55.602Z,3.00
2018-09-22T01:35:26.741Z,3.90
2018-09-22T01:37:57.947Z,3.57
2018-09-22T01:40:29.115Z,4.03
2018-09-22T01:43:00.179Z,2.83
2018-09-22T01:45:35.718Z,3.60
2018-09-22T01:48:07.387Z,3.47
2018-09-22T01:50:38.842Z,3.50
2018-09-22T01:53:09.644Z,3.73
2018-09-22T01:55:41.093Z,3.50
2018-09-22T01:58:14.534Z,3.03
2018-09-22T02:00:45.197Z,2.63
2018-09-22T02:03:17.007Z,2.47
2018-09-22T02:05:48.642Z,3.00
2018-09-22T02:08:20.306Z,2.77
2018-09-22T02:10:51.861Z,3.63
2018-09-22T02:13:23.299Z,3.17
2018-09-22T02:15:54.609Z,3.43
2018-09-22T02:18:25.593Z,3.13
2018-09-22T02:20:56.495Z,2.83
2018-09-22T02:23:27.983Z,3.33
2018-09-22T02:25:59.102Z,3.10
2018-09-22T02:28:30.537Z,3.10
2018-09-22T02:31:01.936Z,3.50
2018-09-22T02:33:33.264Z,2.80
2018-09-22T02:36:04.434Z,2.60
2018-09-22T02:38:40.449Z,2.67
2018-09-22T02:41:11.121Z,3.87
2018-09-22T02:43:42.502Z,2.90
2018-09-22T02:46:13.843Z,2.60
2018-09-22T02:48:44.694Z,3.03
2018-09-22T02:51:15.916Z,2.83
2018-09-22T02:53:47.246Z,2.67
2018-09-22T02:56:18.507Z,2.90
2018-09-22T02:58:50.836Z,3.20
2018-09-22T03:01:21.985Z,3.10
2018-09-22T03:03:53.461Z,2.90
2018-09-22T03:06:24.832Z,3.30
2018-09-22T03:08:57.170Z,3.07
2018-09-22T03:11:28.715Z,3.07
2018-09-22T03:13:59.934Z,3.40
2018-09-22T03:16:30.542Z,2.77
2018-09-22T03:19:02.210Z,2.37
2018-09-22T03:21:33.779Z,2.87
2018-09-22T03:24:05.019Z,3.60
2018-09-22T03:26:36.248Z,2.70
2018-09-22T03:29:07.329Z,3.47
2018-09-22T03:31:39.192Z,4.10
2018-09-22T03:34:11.637Z,3.10
2018-09-22T03:36:43.182Z,3.33
2018-09-22T03:39:14.099Z,2.83
2018-09-22T03:41:45.825Z,3.37
2018-09-22T03:44:16.720Z,2.80
2018-09-22T03:46:47.931Z,3.23
2018-09-22T03:49:19.555Z,2.90
2018-09-22T03:51:50.860Z,2.97
2018-09-22T03:54:21.478Z,2.57
2018-09-22T03:56:52.720Z,2.80
2018-09-22T03:59:24.185Z,3.07
2018-09-22T04:01:55.030Z,2.77
2018-09-22T04:04:26.614Z,2.60
2018-09-22T04:06:57.196Z,2.53
2018-09-22T04:09:27.628Z,2.83
2018-09-22T04:11:58.611Z,2.90
2018-09-22T04:14:30.766Z,3.10
2018-09-22T04:17:02.085Z,2.90
2018-09-22T04:19:33.535Z,3.63
2018-09-22T04:22:04.779Z,3.30
2018-09-22T04:24:35.785Z,2.50
2018-09-22T04:27:07.138Z,2.90
2018-09-22T04:29:38.633Z,3.23
2018-09-22T04:32:09.493Z,2.87
2018-09-22T04:34:40.663Z,3.57
2018-09-22T04:37:12.464Z,3.60
2018-09-22T04:39:43.848Z,2.60
2018-09-22T04:42:14.912Z,2.50
2018-09-22T04:44:46.473Z,2.97
2018-09-22T04:47:17.252Z,2.63
2018-09-22T04:49:49.970Z,3.70
2018-09-22T04:52:21.670Z,2.70
2018-09-22T04:54:52.960Z,3.23
2018-09-22T04:57:23.951Z,3.33
2018-09-22T04:59:55.050Z,3.00
2018-09-22T05:02:28.378Z,2.93
2018-09-22T05:04:59.728Z,2.73
2018-09-22T05:07:30.741Z,2.97
2018-09-22T05:10:01.765Z,2.67
2018-09-22T05:12:32.899Z,3.17
2018-09-22T05:15:04.256Z,2.73
2018-09-22T05:17:36.880Z,3.30
2018-09-22T05:20:07.697Z,2.93
2018-09-22T05:22:39.324Z,3.07
2018-09-22T05:25:10.993Z,2.70
2018-09-22T05:27:42.672Z,3.47
2018-09-22T05:30:14.465Z,3.00
2018-09-22T05:32:45.958Z,3.30
2018-09-22T05:35:17.506Z,3.37
2018-09-22T05:37:49.480Z,2.60
2018-09-22T05:40:20.693Z,2.63
2018-09-22T05:42:52.095Z,3.00
2018-09-22T05:45:23.580Z,3.00
2018-09-22T05:47:54.961Z,2.83
2018-09-22T05:50:26.311Z,3.23
2018-09-22T05:52:55.921Z,2.87
2018-09-22T05:55:25.709Z,3.00
2018-09-22T05:57:55.581Z,3.07
2018-09-22T06:00:25.722Z,2.67
2018-09-22T06:02:56.825Z,3.53
2018-09-22T06:05:28.265Z,3.10
2018-09-22T06:07:58.625Z,2.90
2018-09-22T06:10:34.048Z,2.93
2018-09-22T06:13:04.663Z,2.70
2018-09-22T06:15:34.857Z,3.33
2018-09-22T06:18:04.717Z,3.13
2018-09-22T06:20:34.794Z,3.07
2018-09-22T06:23:04.873Z,3.27
2018-09-22T06:25:35.287Z,3.37
2018-09-22T06:28:05.133Z,3.00
2018-09-22T06:30:35.341Z,2.83
2018-09-22T06:33:06.393Z,3.13
2018-09-22T06:35:36.199Z,2.80
2018-09-22T06:38:06.587Z,2.80
2018-09-22T06:40:36.761Z,3.17
2018-09-22T06:43:06.345Z,3.63
2018-09-22T06:45:35.789Z,3.27
2018-09-22T06:48:05.659Z,3.50
2018-09-22T06:50:35.241Z,3.80
2018-09-22T06:53:04.659Z,3.80
2018-09-22T06:55:34.375Z,3.80
2018-09-22T06:58:03.964Z,3.17
2018-09-22T07:00:41.931Z,4.20
2018-09-22T07:03:11.390Z,4.10
2018-09-22T07:05:41.274Z,3.87
2018-09-22T07:08:10.782Z,4.07
2018-09-22T07:10:40.413Z,3.47
2018-09-22T07:13:09.980Z,3.93
2018-09-22T07:15:39.508Z,3.80
2018-09-22T07:18:09.434Z,4.13
2018-09-22T07:20:44.149Z,3.07
2018-09-22T07:23:16.317Z,4.00
2018-09-22T07:25:47.559Z,3.40
2018-09-22T07:28:18.139Z,3.30
2018-09-22T07:30:51.921Z,3.13
2018-09-22T07:33:23.081Z,3.87
2018-09-22T07:35:54.088Z,3.63
2018-09-22T07:38:25.817Z,3.33
2018-09-22T07:40:56.888Z,3.27
2018-09-22T07:43:33.604Z,3.83
2018-09-22T07:46:09.094Z,3.17
2018-09-22T07:48:40.858Z,3.63
2018-09-22T07:51:12.023Z,3.03
2018-09-22T07:53:43.047Z,3.37
2018-09-22T07:56:13.716Z,3.70
2018-09-22T07:58:44.921Z,3.73
2018-09-22T08:01:16.501Z,2.97
2018-09-22T08:03:48.904Z,2.90
2018-09-22T08:06:19.872Z,3.27
2018-09-22T08:08:51.000Z,3.53
2018-09-22T08:11:22.143Z,2.73
2018-09-22T08:13:53.884Z,3.00
2018-09-22T08:16:25.129Z,2.93
2018-09-22T08:18:56.993Z,2.90
2018-09-22T08:21:30.814Z,3.27
2018-09-22T08:24:01.954Z,3.17
2018-09-22T08:26:35.157Z,3.30
2018-09-22T08:29:05.786Z,3.13
2018-09-22T08:31:37.873Z,3.00
2018-09-22T08:34:09.039Z,3.07
2018-09-22T08:36:40.205Z,3.13
2018-09-22T08:39:12.630Z,2.90
2018-09-22T08:41:43.575Z,3.37
2018-09-22T08:44:14.554Z,3.43
2018-09-22T08:46:45.706Z,3.63
2018-09-22T08:49:16.399Z,2.83
2018-09-22T08:51:46.957Z,2.67
2018-09-22T08:54:18.474Z,2.70
2018-09-22T08:56:51.199Z,2.50
2018-09-22T08:59:21.167Z,3.13
2018-09-22T09:01:50.864Z,3.07
2018-09-22T09:04:20.181Z,2.80
2018-09-22T09:06:49.695Z,3.17
2018-09-22T09:09:19.551Z,3.10
2018-09-22T09:11:49.095Z,2.83
2018-09-22T09:14:19.975Z,2.97
2018-09-22T09:16:49.967Z,2.50
2018-09-22T09:19:22.211Z,2.40
2018-09-22T09:21:51.695Z,2.77
2018-09-22T09:24:21.629Z,2.70
2018-09-22T09:26:51.277Z,2.97
2018-09-22T09:29:20.773Z,2.60
2018-09-22T09:31:50.943Z,2.20
2018-09-22T09:34:20.364Z,2.83
2018-09-22T09:36:51.225Z,2.60
2018-09-22T09:39:20.970Z,2.57
2018-09-22T09:41:52.385Z,2.33
2018-09-22T09:44:22.007Z,2.90
2018-09-22T09:46:51.889Z,2.70
2018-09-22T09:49:21.553Z,2.90
2018-09-22T09:51:51.104Z,2.57
2018-09-22T09:54:20.620Z,2.00
2018-09-22T09:56:50.132Z,2.77
2018-09-22T09:59:21.002Z,2.23
2018-09-22T10:01:50.873Z,2.50
2018-09-22T10:04:20.858Z,2.30
2018-09-22T10:06:50.795Z,2.30
2018-09-22T10:09:21.248Z,3.00
2018-09-22T10:11:51.659Z,2.37
2018-09-22T10:14:21.904Z,2.33
2018-09-22T10:16:52.145Z,2.70
2018-09-22T10:19:27.572Z,2.03
2018-09-22T10:21:57.842Z,2.23
2018-09-22T10:24:28.012Z,2.17
2018-09-22T10:26:58.023Z,2.37
2018-09-22T10:29:31.532Z,2.37
2018-09-22T10:32:01.790Z,2.00
2018-09-22T10:34:32.637Z,1.87
2018-09-22T10:37:01.940Z,2.30
2018-09-22T10:39:32.246Z,2.40
2018-09-22T10:42:02.069Z,2.27
2018-09-22T10:44:31.821Z,2.13
2018-09-22T10:47:01.357Z,1.93
2018-09-22T10:49:33.083Z,2.37
2018-09-22T10:52:02.475Z,2.00
2018-09-22T10:54:32.155Z,2.10
2018-09-22T10:57:01.849Z,2.23
2018-09-22T10:59:31.342Z,2.40
2018-09-22T11:02:01.282Z,2.57
2018-09-22T11:04:30.655Z,1.90
2018-09-22T11:07:11.822Z,2.33
2018-09-22T11:09:41.119Z,2.00
2018-09-22T11:12:11.227Z,1.90
2018-09-22T11:14:42.062Z,2.07
2018-09-22T11:17:11.613Z,2.10
2018-09-22T11:19:43.533Z,2.90
2018-09-22T11:22:13.027Z,2.77
2018-09-22T11:24:42.810Z,2.20
2018-09-22T11:27:12.688Z,2.00
2018-09-22T11:29:44.255Z,3.03
2018-09-22T11:32:13.468Z,2.37
2018-09-22T11:34:43.936Z,2.43
2018-09-22T11:37:13.498Z,2.27
2018-09-22T11:39:42.927Z,2.17
2018-09-22T11:42:12.616Z,2.20
2018-09-22T11:44:43.028Z,2.00
2018-09-22T11:47:12.844Z,2.30
2018-09-22T11:49:45.367Z,2.20
2018-09-22T11:52:15.175Z,2.47
2018-09-22T11:54:48.752Z,2.37
2018-09-22T11:57:18.189Z,2.27
2018-09-22T11:59:47.480Z,2.53
2018-09-22T12:02:17.300Z,2.23
2018-09-22T12:04:47.174Z,2.23
2018-09-22T12:07:17.379Z,2.00
2018-09-22T12:09:46.559Z,2.53
2018-09-22T12:12:16.925Z,2.20
2018-09-22T12:14:46.787Z,2.70
2018-09-22T12:17:17.886Z,1.90
2018-09-22T12:19:48.063Z,2.20
2018-09-22T12:22:18.180Z,2.27
2018-09-22T12:24:48.109Z,2.53
2018-09-22T12:27:18.537Z,1.90
2018-09-22T12:29:48.082Z,2.17
2018-09-22T12:32:18.392Z,2.27
2018-09-22T12:34:47.654Z,2.30
2018-09-22T12:37:17.761Z,1.80
2018-09-22T12:39:47.241Z,2.30
2018-09-22T12:42:17.977Z,2.10
2018-09-22T12:44:48.084Z,2.50
2018-09-22T12:47:18.770Z,2.20
2018-09-22T12:49:48.341Z,2.83
2018-09-22T12:52:19.112Z,2.03
2018-09-22T12:54:48.472Z,2.60
2018-09-22T12:57:18.787Z,2.30
2018-09-22T12:59:48.416Z,2.47
2018-09-22T13:02:18.443Z,2.27
2018-09-22T13:04:48.890Z,2.13
2018-09-22T13:07:19.372Z,2.47
2018-09-22T13:09:48.951Z,2.33
2018-09-22T13:12:19.024Z,2.67
2018-09-22T13:14:48.376Z,2.40
2018-09-22T13:17:18.836Z,2.33
2018-09-22T13:19:48.476Z,2.00
2018-09-22T13:22:21.332Z,2.53
2018-09-22T13:24:51.376Z,2.33
2018-09-22T13:27:25.528Z,2.33
2018-09-22T13:29:55.062Z,2.10
2018-09-22T13:32:24.846Z,2.13
2018-09-22T13:34:56.831Z,2.20
2018-09-22T13:37:26.653Z,2.40
2018-09-22T13:39:57.281Z,1.80
2018-09-22T13:42:27.300Z,1.87
2018-09-22T13:44:57.367Z,1.70
2018-09-22T13:47:27.060Z,1.57
2018-09-22T13:49:57.090Z,1.40
2018-09-22T13:52:27.055Z,1.70
2018-09-22T13:54:56.931Z,1.10
2018-09-22T13:57:26.951Z,1.40
2018-09-22T13:59:56.618Z,1.30
2018-09-22T14:02:27.972Z,1.30
2018-09-22T14:04:58.136Z,1.13
2018-09-22T14:07:27.990Z,1.60
2018-09-22T14:09:58.385Z,1.50
2018-09-22T14:12:36.011Z,1.60
2018-09-22T14:15:05.953Z,1.50
2018-09-22T14:17:36.156Z,1.50
2018-09-22T14:20:06.476Z,1.60
2018-09-22T14:22:36.298Z,1.57
2018-09-22T14:25:06.045Z,1.50
2018-09-22T14:27:35.906Z,1.50
2018-09-22T14:30:06.026Z,1.80
2018-09-22T14:32:36.072Z,1.50
2018-09-22T14:35:06.042Z,1.40
2018-09-22T14:37:39.315Z,1.40
2018-09-22T14:40:09.379Z,1.47
2018-09-22T14:42:39.309Z,1.57
2018-09-22T14:45:09.115Z,1.50
2018-09-22T14:47:39.111Z,1.60
2018-09-22T14:50:09.115Z,1.53
2018-09-22T14:52:38.947Z,1.60
2018-09-22T14:55:09.005Z,2.07
2018-09-22T14:57:39.091Z,1.50
2018-09-22T15:00:09.075Z,1.50
2018-09-22T15:02:39.228Z,1.50
2018-09-22T15:05:09.802Z,1.50
2018-09-22T15:07:39.566Z,1.37
2018-09-22T15:10:09.227Z,1.63
2018-09-22T15:12:39.542Z,1.40
2018-09-22T15:15:09.679Z,1.67
2018-09-22T15:17:39.740Z,1.50
2018-09-22T15:20:09.723Z,1.70
2018-09-22T15:22:39.500Z,2.20
2018-09-22T15:25:09.027Z,2.00
2018-09-22T15:27:38.520Z,1.47
2018-09-22T15:30:08.480Z,2.00
2018-09-22T15:32:38.674Z,1.57
2018-09-22T15:35:08.734Z,1.70
2018-09-22T15:37:38.770Z,1.57
2018-09-22T15:40:10.772Z,2.07
2018-09-22T15:42:40.962Z,2.20
2018-09-22T15:45:11.318Z,2.47
2018-09-22T15:47:41.636Z,2.10
2018-09-22T15:50:12.162Z,2.00
2018-09-22T15:52:42.032Z,2.10
2018-09-22T15:55:12.934Z,2.13
2018-09-22T15:57:43.234Z,1.73
2018-09-22T16:00:16.907Z,1.80
2018-09-22T16:02:47.531Z,1.37
2018-09-22T16:05:18.556Z,2.00
2018-09-22T16:07:47.976Z,1.77
2018-09-22T16:10:17.839Z,1.70
2018-09-22T16:12:48.087Z,2.07
2018-09-22T16:15:17.440Z,2.00
2018-09-22T16:17:49.589Z,1.67
2018-09-22T16:20:19.057Z,1.90
2018-09-22T16:22:48.643Z,1.50
2018-09-22T16:25:18.041Z,1.80
2018-09-22T16:27:57.628Z,1.90
2018-09-22T16:30:28.231Z,1.90
2018-09-22T16:32:59.471Z,1.70
2018-09-22T16:35:30.391Z,1.90
2018-09-22T16:38:00.324Z,1.60
2018-09-22T16:40:31.711Z,2.20
2018-09-22T16:43:01.460Z,2.27
2018-09-22T16:45:32.390Z,1.70
2018-09-22T16:48:02.971Z,1.80
2018-09-22T16:50:33.082Z,2.10
2018-09-22T16:53:02.833Z,1.80
2018-09-22T16:55:32.869Z,2.30
2018-09-22T16:58:03.143Z,2.20
2018-09-22T17:00:36.779Z,2.50
2018-09-22T17:03:07.404Z,2.93
2018-09-22T17:05:46.507Z,2.93
2018-09-22T17:08:17.326Z,2.70
2018-09-22T17:10:46.847Z,2.20
2018-09-22T17:13:16.961Z,2.67
2018-09-22T17:18:51.815Z,2.07
2018-09-22T17:21:21.543Z,2.27
2018-09-22T17:23:58.553Z,2.67
2018-09-22T17:26:32.448Z,2.83
2018-09-22T17:29:02.325Z,3.20
2018-09-22T17:31:32.890Z,2.60
2018-09-22T17:34:02.866Z,2.60
2018-09-22T17:36:36.575Z,2.57
2018-09-22T17:39:08.815Z,4.80
2018-09-22T17:41:38.771Z,4.90
2018-09-22T17:44:08.910Z,4.13
2018-09-22T17:46:39.955Z,3.27
2018-09-22T17:49:10.246Z,3.00
2018-09-22T17:51:40.135Z,2.87
2018-09-22T17:54:10.092Z,2.67
2018-09-22T17:56:39.861Z,3.63
2018-09-22T17:59:12.193Z,4.20
2018-09-22T18:01:42.166Z,3.80
2018-09-22T18:04:12.162Z,3.47
2018-09-22T18:06:42.242Z,4.23
2018-09-22T18:09:16.660Z,4.08
2018-09-22T18:11:46.542Z,2.90
2018-09-22T18:14:16.938Z,4.20
2018-09-22T18:16:48.159Z,2.67
2018-09-22T18:19:18.476Z,2.73
2018-09-22T18:21:48.757Z,2.87
2018-09-22T18:24:18.661Z,2.77
2018-09-22T18:26:48.651Z,2.97
2018-09-22T18:29:18.241Z,4.47
2018-09-22T18:31:55.039Z,3.70
2018-09-22T18:34:35.158Z,3.70
2018-09-22T18:37:05.961Z,3.37
2018-09-22T18:39:37.848Z,3.53
2018-09-22T18:42:11.852Z,3.40
2018-09-22T18:44:42.117Z,3.30
2018-09-22T18:47:15.231Z,3.10
2018-09-22T18:49:49.749Z,2.80
2018-09-22T18:52:21.450Z,2.90
2018-09-22T18:54:51.866Z,3.27
2018-09-22T18:57:25.034Z,3.53
2018-09-22T18:59:56.157Z,3.30
2018-09-22T19:02:26.905Z,3.27
2018-09-22T19:04:57.844Z,4.00
2018-09-22T19:07:28.013Z,2.90
2018-09-22T19:09:59.336Z,2.80
2018-09-22T19:12:30.149Z,3.00
2018-09-22T19:15:05.956Z,2.93
2018-09-22T19:17:47.437Z,3.20
2018-09-22T19:21:01.148Z,2.90
2018-09-22T19:23:53.939Z,2.63
2018-09-22T19:26:28.494Z,3.30
2018-09-22T19:29:02.736Z,2.67
2018-09-22T19:31:37.815Z,3.17
2018-09-22T19:34:10.754Z,3.30
2018-09-22T19:36:43.720Z,3.33
2018-09-22T19:39:20.056Z,3.30
2018-09-22T19:41:55.478Z,3.23
2018-09-22T19:44:31.059Z,3.50
2018-09-22T19:47:07.972Z,3.77
2018-09-22T19:49:44.359Z,3.43
2018-09-22T19:52:17.797Z,3.20
2018-09-22T19:54:47.705Z,3.90
2018-09-22T19:57:17.686Z,3.80
2018-09-22T19:59:47.709Z,3.60
2018-09-22T20:02:21.119Z,3.40
2018-09-22T20:04:50.734Z,3.53
2018-09-22T20:07:21.030Z,3.30
2018-09-22T20:09:51.756Z,3.57
2018-09-22T20:12:21.020Z,3.50
2018-09-22T20:14:50.963Z,3.47
2018-09-22T20:17:21.010Z,3.63
2018-09-22T20:19:50.866Z,4.00
2018-09-22T20:22:19.998Z,3.63
2018-09-22T20:24:49.441Z,3.73
2018-09-22T20:27:18.723Z,3.90
2018-09-22T20:29:48.744Z,4.23
2018-09-22T20:32:18.404Z,4.23
2018-09-22T20:34:48.429Z,4.60
2018-09-22T20:37:18.597Z,4.40
2018-09-22T20:39:48.295Z,4.60
2018-09-22T20:42:18.636Z,4.03
2018-09-22T20:44:48.281Z,4.60
2018-09-22T20:47:17.749Z,4.17
2018-09-22T20:49:47.631Z,5.03
2018-09-22T20:52:17.371Z,4.87
2018-09-22T20:54:46.930Z,4.70
2018-09-22T20:57:17.225Z,5.07
2018-09-22T20:59:46.791Z,5.17
2018-09-22T21:02:16.787Z,4.87
2018-09-22T21:04:46.359Z,4.60
2018-09-22T21:07:16.822Z,4.37
2018-09-22T21:09:46.149Z,4.70
2018-09-22T21:12:15.780Z,4.70
2018-09-22T21:14:47.359Z,4.50
2018-09-22T21:17:16.815Z,4.17
2018-09-22T21:19:46.361Z,4.37
2018-09-22T21:22:16.663Z,4.20
2018-09-22T21:24:46.243Z,3.70
2018-09-22T21:27:15.945Z,4.17
2018-09-22T21:29:46.633Z,3.63
2018-09-22T21:32:18.070Z,3.10
2018-09-22T21:34:47.497Z,3.83
2018-09-22T21:37:17.281Z,3.80
2018-09-22T21:39:48.231Z,3.60
2018-09-22T21:42:18.656Z,4.37
2018-09-22T21:44:48.021Z,3.90
2018-09-22T21:47:20.714Z,4.10
2018-09-22T21:49:51.592Z,4.40
2018-09-22T21:52:24.158Z,4.10
2018-09-22T21:54:56.627Z,4.03
2018-09-22T21:57:31.935Z,4.10
2018-09-22T22:00:02.799Z,4.40
2018-09-22T22:02:32.538Z,4.77
2018-09-22T22:05:02.463Z,4.77
2018-09-22T22:07:33.336Z,4.97
2018-09-22T22:10:06.172Z,5.43
2018-09-22T22:12:37.296Z,5.53
2018-09-22T22:15:10.104Z,6.10
2018-09-22T22:17:43.121Z,5.87
2018-09-22T22:20:12.731Z,6.17
2018-09-22T22:22:45.917Z,5.73
2018-09-22T22:25:18.750Z,5.90
2018-09-22T22:27:49.660Z,6.27
2018-09-22T22:30:22.322Z,6.13
2018-09-22T22:32:52.411Z,6.57
2018-09-22T22:35:22.284Z,6.47
2018-09-22T22:37:55.416Z,6.20
2018-09-22T22:40:28.399Z,5.87
2018-09-22T22:43:01.516Z,6.27
2018-09-22T22:45:31.834Z,6.00
2018-09-22T22:48:02.101Z,6.10
2018-09-22T22:50:32.538Z,6.00
2018-09-22T22:53:02.346Z,6.30
2018-09-22T22:55:32.388Z,5.83
2018-09-22T22:58:02.708Z,6.70
2018-09-22T23:00:32.649Z,6.53
2018-09-22T23:03:03.642Z,6.23
2018-09-22T23:05:33.476Z,7.07
2018-09-22T23:08:06.627Z,7.03
2018-09-22T23:10:36.430Z,7.70
2018-09-22T23:13:08.091Z,8.03
2018-09-22T23:15:37.567Z,8.40
2018-09-22T23:18:07.107Z,8.13
2018-09-22T23:20:39.384Z,8.63
2018-09-22T23:23:09.527Z,8.63
2018-09-22T23:25:39.522Z,9.13
2018-09-22T23:28:12.077Z,9.87
2018-09-22T23:30:44.213Z,9.47
2018-09-22T23:33:13.762Z,9.67
2018-09-22T23:35:43.872Z,9.07
2018-09-22T23:38:16.461Z,11.23
2018-09-22T23:40:47.835Z,11.10
2018-09-22T23:43:17.943Z,10.37
2018-09-22T23:45:54.130Z,10.70
2018-09-22T23:48:30.573Z,10.93
2018-09-22T23:50:59.840Z,10.33
2018-09-22T23:53:32.246Z,10.13
2018-09-22T23:56:01.611Z,10.93
2018-09-22T23:58:31.143Z,11.50
